Time;durP1;ratioP1;P1;durP2;ratioP2;P2;SDS_P1;SDS_P2;PMS_P1;PMS_P2;Temp;Humidity;BMP_temperature;BMP_pressure;BME280_temperature;BME280_humidity;BME280_pressure;Samples;Min_cycle;Max_cycle;Signal;HPM_P1;HPM_P2
2022/04/29 00:01:03;;;;;;;12.05;9.48;;;10.70;99.90;;;;;;5019065;28;20561;-47
2022/04/29 00:03:31;;;;;;;12.70;11.27;;;10.50;99.90;;;;;;5014712;28;20246;-49
2022/04/29 00:05:59;;;;;;;16.20;10.95;;;10.50;99.90;;;;;;5017275;28;20236;-45
2022/04/29 00:08:26;;;;;;;11.30;10.10;;;10.70;99.90;;;;;;5017794;28;20223;-46
2022/04/29 00:10:53;;;;;;;16.50;11.07;;;10.80;99.90;;;;;;5018711;28;20208;-45
2022/04/29 00:13:21;;;;;;;17.67;10.10;;;10.60;99.90;;;;;;5018988;28;20199;-51
2022/04/29 00:15:49;;;;;;;20.08;10.60;;;10.60;99.90;;;;;;5016238;28;20529;-46
2022/04/29 00:18:17;;;;;;;15.80;11.95;;;10.80;99.90;;;;;;5018959;28;20241;-47
2022/04/29 00:20:44;;;;;;;14.90;9.88;;;10.90;99.90;;;;;;5016189;28;20204;-47
2022/04/29 00:23:12;;;;;;;12.82;9.35;;;11.00;99.90;;;;;;5019050;28;20211;-45
2022/04/29 00:25:39;;;;;;;13.63;9.30;;;10.90;99.90;;;;;;5018429;28;20227;-46
2022/04/29 00:28:07;;;;;;;13.05;10.38;;;11.00;99.90;;;;;;5018563;28;20223;-47
2022/04/29 00:30:34;;;;;;;12.63;10.50;;;11.00;99.90;;;;;;5018897;28;20209;-48
2022/04/29 00:33:02;;;;;;;14.40;10.10;;;10.90;99.90;;;;;;5019143;28;20210;-47
2022/04/29 00:35:29;;;;;;;11.23;8.75;;;10.90;99.90;;;;;;5019808;28;20203;-51
2022/04/29 00:37:58;;;;;;;13.45;10.30;;;10.90;99.90;;;;;;5021979;28;20230;-47
2022/04/29 00:40:28;;;;;;;14.52;10.77;;;10.80;99.90;;;;;;5022079;28;20206;-49
2022/04/29 00:42:57;;;;;;;15.88;10.75;;;10.80;99.90;;;;;;5022166;28;20215;-45
2022/04/29 00:45:27;;;;;;;16.08;10.85;;;10.80;99.90;;;;;;5022225;28;20540;-44
2022/04/29 00:47:55;;;;;;;13.00;10.48;;;10.60;99.90;;;;;;5020302;28;20529;-49
2022/04/29 00:50:30;;;;;;;13.73;9.63;;;10.50;99.90;;;;;;5022363;28;20210;-49
2022/04/29 00:52:59;;;;;;;15.02;10.40;;;10.50;99.90;;;;;;5022522;28;20194;-47
2022/04/29 00:55:27;;;;;;;17.25;11.90;;;10.40;99.90;;;;;;5022504;28;20456;-44
2022/04/29 00:58:13;;;;;;;15.65;11.65;;;10.30;99.90;;;;;;5021604;28;20306;-45
2022/04/29 01:00:40;;;;;;;12.73;10.48;;;10.20;99.90;;;;;;5020827;28;20210;-46
2022/04/29 01:03:11;;;;;;;16.33;11.48;;;10.30;99.90;;;;;;5021542;28;20229;-43
2022/04/29 01:05:39;;;;;;;14.40;11.13;;;10.10;99.90;;;;;;5021487;28;20269;-47
2022/04/29 01:08:07;;;;;;;14.10;11.63;;;10.20;99.90;;;;;;5021718;28;20218;-43
2022/04/29 01:10:35;;;;;;;17.38;10.60;;;10.20;99.90;;;;;;5021107;28;20198;-48
2022/04/29 01:13:04;;;;;;;13.15;10.80;;;10.10;99.90;;;;;;5021680;28;20397;-44
2022/04/29 01:15:31;;;;;;;18.42;11.18;;;10.10;99.90;;;;;;5018633;28;20509;-47
2022/04/29 01:18:01;;;;;;;16.95;11.32;;;9.90;99.90;;;;;;5021496;28;20248;-47
2022/04/29 01:20:30;;;;;;;16.85;12.18;;;9.90;99.90;;;;;;5021410;28;20508;-45
2022/04/29 01:22:58;;;;;;;17.15;12.13;;;9.80;99.90;;;;;;5019799;28;20522;-48
2022/04/29 01:25:25;;;;;;;17.13;12.30;;;9.70;99.90;;;;;;5021332;28;20201;-44
2022/04/29 01:27:53;;;;;;;15.45;11.48;;;9.80;99.90;;;;;;5021495;28;20236;-47
2022/04/29 01:30:20;;;;;;;17.42;11.90;;;9.80;99.90;;;;;;5021379;28;20203;-47
2022/04/29 01:32:48;;;;;;;13.80;10.68;;;9.70;99.90;;;;;;5021071;28;20198;-48
2022/04/29 01:35:15;;;;;;;17.90;11.60;;;9.70;99.90;;;;;;5021348;28;20204;-45
2022/04/29 01:37:43;;;;;;;16.00;13.38;;;9.60;99.90;;;;;;5020914;28;20228;-49
2022/04/29 01:40:13;;;;;;;15.98;12.98;;;9.60;99.90;;;;;;5021050;28;20215;-48
2022/04/29 01:42:41;;;;;;;17.95;11.98;;;9.60;99.90;;;;;;5021238;28;20492;-46
2022/04/29 01:45:10;;;;;;;16.30;13.20;;;9.60;99.90;;;;;;5020130;28;20204;-45
2022/04/29 01:47:37;;;;;;;18.50;13.10;;;9.60;99.90;;;;;;5020866;28;20228;-46
2022/04/29 01:50:05;;;;;;;27.58;15.00;;;9.60;99.90;;;;;;5021254;28;20211;-49
2022/04/29 01:52:32;;;;;;;16.88;12.23;;;9.60;99.90;;;;;;5023400;28;20197;-49
2022/04/29 01:54:59;;;;;;;21.20;14.25;;;9.60;99.90;;;;;;5028884;28;20201;-45
2022/04/29 01:57:26;;;;;;;16.63;12.10;;;9.60;99.90;;;;;;5024954;28;20220;-44
2022/04/29 01:59:54;;;;;;;16.33;12.27;;;9.60;99.90;;;;;;5021156;28;20202;-46
2022/04/29 02:02:22;;;;;;;14.43;12.05;;;9.60;99.90;;;;;;5018148;28;20204;-46
2022/04/29 02:04:50;;;;;;;21.13;13.20;;;9.70;99.90;;;;;;5020448;28;20208;-46
2022/04/29 02:07:17;;;;;;;22.60;14.90;;;9.70;99.90;;;;;;5020644;28;20233;-50
2022/04/29 02:09:45;;;;;;;17.90;13.50;;;9.60;99.90;;;;;;5020298;28;20229;-49
2022/04/29 02:12:12;;;;;;;17.55;12.85;;;9.60;99.90;;;;;;5020225;28;20419;-46
2022/04/29 02:14:41;;;;;;;19.80;12.60;;;9.60;99.90;;;;;;5017485;28;20201;-47
2022/04/29 02:17:10;;;;;;;15.70;11.68;;;9.50;99.90;;;;;;5020067;28;20207;-44
2022/04/29 02:19:38;;;;;;;20.13;12.25;;;9.50;99.90;;;;;;5020061;28;20220;-46
2022/04/29 02:22:08;;;;;;;15.23;11.63;;;9.40;99.90;;;;;;5019356;28;20401;-47
2022/04/29 02:24:36;;;;;;;15.60;11.75;;;9.50;99.90;;;;;;5019960;28;20437;-47
2022/04/29 02:27:06;;;;;;;20.02;12.32;;;9.60;99.90;;;;;;5020280;28;20228;-46
2022/04/29 02:29:33;;;;;;;23.10;12.10;;;9.70;99.90;;;;;;5017852;28;20392;-45
2022/04/29 02:32:01;;;;;;;12.93;11.00;;;9.40;99.90;;;;;;5019975;28;20514;-47
2022/04/29 02:34:28;;;;;;;15.15;11.18;;;9.50;99.90;;;;;;5020005;28;20213;-44
2022/04/29 02:36:55;;;;;;;17.17;12.18;;;9.60;99.90;;;;;;5021311;28;20199;-46
2022/04/29 02:39:22;;;;;;;18.67;13.10;;;9.70;99.90;;;;;;5020871;28;20233;-46
2022/04/29 02:41:50;;;;;;;13.20;11.18;;;9.70;99.90;;;;;;5019627;28;20727;-44
2022/04/29 02:44:17;;;;;;;24.02;10.90;;;9.80;99.90;;;;;;5019855;28;20220;-47
2022/04/29 02:49:31;;;;;;;17.42;12.90;;;9.80;99.90;;;;;;5017205;28;20238;-46
2022/04/29 02:51:58;;;;;;;17.90;11.90;;;9.60;99.90;;;;;;5019998;28;20201;-48
2022/04/29 02:54:25;;;;;;;13.40;11.90;;;9.60;99.90;;;;;;5019685;28;20531;-48
2022/04/29 02:56:53;;;;;;;17.00;12.20;;;9.70;99.90;;;;;;5019352;28;20206;-45
2022/04/29 02:59:20;;;;;;;12.90;11.23;;;9.90;99.90;;;;;;5019411;28;20221;-46
2022/04/29 03:01:48;;;;;;;18.25;13.55;;;10.00;99.90;;;;;;5019561;28;20208;-45
2022/04/29 03:04:16;;;;;;;14.98;12.15;;;10.00;99.90;;;;;;5018614;28;20210;-48
2022/04/29 03:06:44;;;;;;;17.35;11.73;;;10.10;99.90;;;;;;5019405;28;20414;-48
2022/04/29 03:09:11;;;;;;;15.75;12.00;;;10.10;99.90;;;;;;5019450;28;20537;-46
2022/04/29 03:11:39;;;;;;;19.35;13.73;;;10.20;99.90;;;;;;5018850;28;20198;-46
2022/04/29 03:14:07;;;;;;;16.38;12.90;;;10.20;99.90;;;;;;5016717;28;20198;-48
2022/04/29 03:16:35;;;;;;;13.43;10.82;;;10.10;99.90;;;;;;5015058;28;20428;-45
2022/04/29 03:19:02;;;;;;;17.02;14.25;;;10.10;99.90;;;;;;5020741;28;20242;-49
2022/04/29 03:21:29;;;;;;;13.70;11.25;;;10.00;99.90;;;;;;5020863;28;20422;-47
2022/04/29 03:23:57;;;;;;;18.85;12.90;;;10.10;99.90;;;;;;5020816;28;20441;-46
2022/04/29 03:26:24;;;;;;;17.40;12.38;;;10.20;99.90;;;;;;5020349;28;20223;-45
2022/04/29 03:28:51;;;;;;;12.40;11.10;;;10.20;99.90;;;;;;5020858;28;20221;-48
2022/04/29 03:31:19;;;;;;;18.02;12.35;;;10.20;99.90;;;;;;5020120;28;20223;-45
2022/04/29 03:33:46;;;;;;;15.48;12.10;;;10.20;99.90;;;;;;5020384;28;20205;-46
2022/04/29 03:36:14;;;;;;;17.95;12.93;;;10.20;99.90;;;;;;5020164;28;20199;-45
2022/04/29 03:38:42;;;;;;;15.27;12.32;;;10.10;99.90;;;;;;5020631;28;20233;-49
2022/04/29 03:41:09;;;;;;;14.60;11.77;;;10.10;99.90;;;;;;5020548;28;20198;-46
2022/04/29 03:43:36;;;;;;;18.92;11.93;;;10.10;99.90;;;;;;5018779;28;20456;-44
2022/04/29 03:46:05;;;;;;;17.23;13.88;;;10.20;99.90;;;;;;5017683;28;20409;-46
2022/04/29 03:49:35;;;;;;;14.43;13.00;;;10.30;99.90;;;;;;5020124;28;20218;-47
2022/04/29 03:51:20;;;;;;;16.70;12.60;;;10.30;99.90;;;;;;5015407;28;20252;-51
2022/04/29 03:53:48;;;;;;;19.15;13.40;;;10.40;99.90;;;;;;5019856;28;20193;-50
2022/04/29 03:56:17;;;;;;;18.67;13.48;;;10.30;99.90;;;;;;5019313;28;20206;-47
2022/04/29 03:58:44;;;;;;;19.35;13.73;;;10.20;99.90;;;;;;5013137;28;20421;-45
2022/04/29 04:01:12;;;;;;;18.77;14.40;;;10.10;99.90;;;;;;5018123;28;20218;-46
2022/04/29 04:03:40;;;;;;;17.90;13.85;;;10.00;99.90;;;;;;5012008;28;20200;-47
2022/04/29 04:08:54;;;;;;;17.92;14.18;;;10.00;99.90;;;;;;5022175;28;20221;-44
2022/04/29 04:11:21;;;;;;;14.00;12.20;;;9.80;99.90;;;;;;5023114;28;20278;-46
2022/04/29 04:13:48;;;;;;;14.15;12.48;;;9.80;99.90;;;;;;5023334;28;20205;-50
2022/04/29 04:16:15;;;;;;;16.05;12.02;;;9.80;99.90;;;;;;5023929;28;20434;-45
2022/04/29 04:18:43;;;;;;;16.52;13.13;;;9.90;99.90;;;;;;5023920;28;20253;-46
2022/04/29 04:21:10;;;;;;;21.45;13.48;;;10.00;99.90;;;;;;5023815;28;20225;-48
2022/04/29 04:23:38;;;;;;;21.90;12.05;;;10.20;99.90;;;;;;5023831;28;20199;-48
2022/04/29 04:26:05;;;;;;;18.80;12.32;;;10.20;99.90;;;;;;5023878;28;20225;-45
2022/04/29 04:28:32;;;;;;;15.57;12.82;;;10.00;99.90;;;;;;5019884;28;20260;-46
2022/04/29 04:31:00;;;;;;;16.92;12.10;;;10.30;99.90;;;;;;5007717;28;20432;-46
2022/04/29 04:33:27;;;;;;;19.85;13.55;;;10.40;99.90;;;;;;5013113;28;20199;-45
2022/04/29 04:35:54;;;;;;;16.50;13.15;;;10.40;99.90;;;;;;5020370;28;20275;-45
2022/04/29 04:38:22;;;;;;;17.75;13.35;;;10.50;99.90;;;;;;5023438;28;20238;-45
2022/04/29 04:40:50;;;;;;;16.92;13.20;;;10.70;99.90;;;;;;5023468;28;20210;-46
2022/04/29 04:43:17;;;;;;;17.65;12.15;;;10.70;99.90;;;;;;5023050;28;20227;-46
2022/04/29 04:45:46;;;;;;;20.42;12.00;;;10.90;99.90;;;;;;5016121;28;20209;-44
2022/04/29 04:48:13;;;;;;;13.10;11.80;;;11.10;99.90;;;;;;5014795;28;20341;-45
2022/04/29 04:50:41;;;;;;;13.00;11.13;;;11.20;99.90;;;;;;5023537;28;20207;-47
2022/04/29 04:53:08;;;;;;;15.38;10.85;;;11.30;99.90;;;;;;5023165;28;20597;-46
2022/04/29 04:55:38;;;;;;;17.15;12.40;;;11.40;99.90;;;;;;5022204;28;20204;-45
2022/04/29 04:58:06;;;;;;;14.68;10.52;;;11.40;99.90;;;;;;5022854;28;20255;-43
2022/04/29 05:00:33;;;;;;;13.60;11.73;;;11.40;99.90;;;;;;5022740;28;20292;-46
2022/04/29 05:03:00;;;;;;;22.25;13.30;;;11.30;99.90;;;;;;5023217;28;20208;-46
2022/04/29 05:05:32;;;;;;;15.40;12.30;;;11.30;99.90;;;;;;5022657;28;20305;-45
2022/04/29 05:07:59;;;;;;;15.40;11.98;;;11.40;99.90;;;;;;5023400;28;20239;-48
2022/04/29 05:10:27;;;;;;;15.00;11.95;;;11.70;99.90;;;;;;5022670;28;20214;-45
2022/04/29 05:12:54;;;;;;;21.23;12.43;;;11.80;99.90;;;;;;5022733;28;20214;-50
2022/04/29 05:15:21;;;;;;;16.55;11.30;;;11.80;99.90;;;;;;5022159;28;20208;-47
2022/04/29 05:17:48;;;;;;;18.33;12.52;;;12.00;99.90;;;;;;5022872;28;20240;-49
2022/04/29 05:20:16;;;;;;;11.95;10.75;;;12.20;99.90;;;;;;5021519;28;20226;-48
2022/04/29 05:22:47;;;;;;;16.80;12.02;;;12.50;99.90;;;;;;5022537;28;20203;-45
2022/04/29 05:25:14;;;;;;;20.10;11.25;;;12.60;99.90;;;;;;5022599;28;20267;-50
2022/04/29 05:27:42;;;;;;;13.43;9.65;;;12.50;99.90;;;;;;5022520;28;20242;-45
2022/04/29 05:30:09;;;;;;;9.88;8.48;;;12.70;99.90;;;;;;5021373;28;20200;-49
2022/04/29 05:32:38;;;;;;;9.82;7.88;;;13.00;99.90;;;;;;5014714;28;20201;-47
2022/04/29 05:35:06;;;;;;;10.45;7.35;;;13.00;99.90;;;;;;5020487;28;20203;-50
2022/04/29 05:37:33;;;;;;;9.02;8.15;;;12.80;99.90;;;;;;5021869;28;20203;-48
2022/04/29 05:42:47;;;;;;;11.60;7.47;;;12.80;99.90;;;;;;5013592;28;20203;-47
2022/04/29 05:45:14;;;;;;;9.40;6.75;;;12.70;99.90;;;;;;5013014;28;20504;-51
2022/04/29 05:47:41;;;;;;;6.63;5.43;;;12.60;99.90;;;;;;5012545;28;20455;-44
2022/04/29 05:50:08;;;;;;;8.32;5.68;;;12.40;99.90;;;;;;5021972;28;20211;-48
2022/04/29 05:52:36;;;;;;;6.32;5.72;;;12.40;99.90;;;;;;5021870;28;20198;-48
2022/04/29 05:55:03;;;;;;;15.25;5.57;;;12.60;99.90;;;;;;5022089;28;20201;-45
2022/04/29 05:57:30;;;;;;;6.80;5.47;;;12.90;99.90;;;;;;5021877;28;20271;-46
2022/04/29 05:59:59;;;;;;;7.97;3.90;;;13.10;99.90;;;;;;5022066;28;20197;-49
2022/04/29 06:02:26;;;;;;;6.60;4.75;;;13.20;99.90;;;;;;5021512;28;20299;-47
2022/04/29 06:04:54;;;;;;;8.50;5.40;;;13.50;99.90;;;;;;5021464;28;20245;-49
2022/04/29 06:07:21;;;;;;;7.70;5.80;;;13.80;99.90;;;;;;5009857;28;20237;-47
2022/04/29 06:09:49;;;;;;;6.90;5.00;;;14.10;99.90;;;;;;5001978;28;20224;-47
2022/04/29 06:12:16;;;;;;;6.05;4.55;;;14.50;99.90;;;;;;5001894;28;20197;-51
2022/04/29 06:14:45;;;;;;;5.88;4.90;;;15.00;99.90;;;;;;5000435;28;20202;-47
2022/04/29 06:17:13;;;;;;;8.32;4.68;;;15.50;99.90;;;;;;5000554;28;20201;-50
2022/04/29 06:19:41;;;;;;;8.65;4.05;;;15.80;99.90;;;;;;5001429;28;20229;-47
2022/04/29 06:22:09;;;;;;;6.50;4.60;;;16.20;99.90;;;;;;5001793;28;20572;-50
2022/04/29 06:24:37;;;;;;;5.40;4.20;;;16.60;99.90;;;;;;5001893;28;20652;-54
2022/04/29 06:27:24;;;;;;;4.63;4.23;;;17.00;99.90;;;;;;5001163;28;20549;-49
2022/04/29 06:29:52;;;;;;;5.47;4.23;;;17.40;99.90;;;;;;5009484;28;20404;-46
2022/04/29 06:32:19;;;;;;;7.07;4.57;;;18.10;99.90;;;;;;5012750;28;20433;-46
2022/04/29 06:34:48;;;;;;;10.93;4.63;;;18.90;99.90;;;;;;5021275;28;20455;-49
2022/04/29 06:37:17;;;;;;;6.03;3.77;;;18.90;99.20;;;;;;5020591;28;20442;-49
2022/04/29 06:39:50;;;;;;;6.13;4.10;;;18.90;98.20;;;;;;5021174;28;20754;-51
2022/04/29 06:42:17;;;;;;;6.53;4.43;;;18.80;98.10;;;;;;5020417;28;20436;-50
2022/04/29 06:44:44;;;;;;;5.10;4.30;;;19.60;96.40;;;;;;5021135;28;20438;-49
2022/04/29 06:47:16;;;;;;;5.20;3.53;;;20.50;94.30;;;;;;5020953;28;20476;-50
2022/04/29 06:49:43;;;;;;;4.30;3.90;;;21.60;91.60;;;;;;5021058;28;20876;-47
2022/04/29 06:52:11;;;;;;;4.17;3.57;;;21.50;90.70;;;;;;5021083;28;20499;-44
2022/04/29 06:54:39;;;;;;;3.87;3.47;;;22.80;84.80;;;;;;5020976;28;20722;-47
2022/04/29 06:57:09;;;;;;;4.53;3.17;;;22.90;82.60;;;;;;5021145;28;20780;-49
2022/04/29 06:59:36;;;;;;;6.10;4.30;;;24.40;76.60;;;;;;5020464;28;20896;-47
2022/04/29 07:02:04;;;;;;;4.63;3.57;;;24.80;74.00;;;;;;5021278;28;20401;-47
2022/04/29 07:04:32;;;;;;;4.80;3.47;;;25.00;71.00;;;;;;5020410;28;20785;-48
2022/04/29 07:07:00;;;;;;;5.90;4.20;;;25.10;68.70;;;;;;5021022;28;20458;-46
2022/04/29 07:09:30;;;;;;;5.43;4.20;;;25.00;66.90;;;;;;5020526;28;20462;-49
2022/04/29 07:12:17;;;;;;;4.27;3.87;;;25.60;64.00;;;;;;5020449;28;20768;-47
2022/04/29 07:14:45;;;;;;;5.27;4.07;;;27.10;62.50;;;;;;5035486;28;20536;-49
2022/04/29 07:17:12;;;;;;;4.73;4.13;;;27.70;58.60;;;;;;5020591;28;20466;-53
2022/04/29 07:19:40;;;;;;;3.23;2.83;;;28.70;56.90;;;;;;5020325;28;20828;-51
2022/04/29 07:22:26;;;;;;;3.77;3.43;;;27.00;56.50;;;;;;5020474;28;20510;-48
2022/04/29 07:24:53;;;;;;;3.80;3.37;;;26.00;59.20;;;;;;5020570;28;20510;-49
2022/04/29 07:27:21;;;;;;;6.93;4.10;;;27.40;57.50;;;;;;5020247;28;20524;-49
2022/04/29 07:29:49;;;;;;;4.87;4.37;;;28.70;56.70;;;;;;5020080;28;20798;-52
2022/04/29 07:32:16;;;;;;;4.13;3.43;;;29.10;54.10;;;;;;5020217;28;20498;-48
2022/04/29 07:43:01;;;;;;;9.83;4.50;;;27.50;55.10;;;;;;5019585;28;20468;-49
2022/04/29 07:45:28;;;;;;;8.60;3.57;;;28.30;53.90;;;;;;5020254;28;20811;-49
2022/04/29 07:47:59;;;;;;;5.33;3.53;;;28.20;53.10;;;;;;5020341;28;20490;-48
2022/04/29 07:50:29;;;;;;;5.83;3.90;;;27.90;53.90;;;;;;5020145;28;20510;-50
2022/04/29 07:52:58;;;;;;;9.80;3.50;;;26.80;54.50;;;;;;5020547;28;20621;-50
2022/04/29 07:55:25;;;;;;;9.33;3.77;;;27.50;53.90;;;;;;5019786;28;20449;-52
2022/04/29 07:57:52;;;;;;;3.10;2.90;;;29.40;51.90;;;;;;5020051;28;20465;-49
2022/04/29 08:00:20;;;;;;;4.30;3.13;;;29.60;50.40;;;;;;5020156;28;20702;-49
2022/04/29 08:02:48;;;;;;;3.10;2.90;;;28.90;51.60;;;;;;5020132;28;20469;-48
2022/04/29 08:05:18;;;;;;;3.43;3.13;;;28.50;51.30;;;;;;5019892;28;20433;-48
2022/04/29 08:07:45;;;;;;;4.03;3.33;;;29.00;50.70;;;;;;5019747;28;20485;-47
2022/04/29 08:10:12;;;;;;;4.67;3.30;;;29.20;50.70;;;;;;5020577;28;20426;-48
2022/04/29 08:12:40;;;;;;;4.17;3.77;;;30.10;49.80;;;;;;5019784;28;20738;-47
2022/04/29 08:15:27;;;;;;;7.67;3.90;;;30.50;48.70;;;;;;5020119;28;20449;-46
2022/04/29 08:17:59;;;;;;;3.70;3.23;;;28.50;51.20;;;;;;5020222;28;20661;-49
2022/04/29 08:20:27;;;;;;;4.10;3.60;;;27.70;51.40;;;;;;5019926;28;20470;-49
2022/04/29 08:22:54;;;;;;;3.80;3.50;;;27.80;50.90;;;;;;5019682;28;20438;-47
2022/04/29 08:25:22;;;;;;;10.03;4.20;;;26.10;53.00;;;;;;5019875;28;20434;-46
2022/04/29 08:27:50;;;;;;;4.53;3.67;;;25.70;54.40;;;;;;5019728;28;20483;-47
2022/04/29 08:30:18;;;;;;;2.67;2.47;;;26.10;53.90;;;;;;5018552;28;20429;-48
2022/04/29 08:32:46;;;;;;;3.20;2.90;;;25.00;55.70;;;;;;5019680;28;20473;-51
2022/04/29 08:35:15;;;;;;;2.70;2.50;;;24.10;57.40;;;;;;5019671;28;20502;-47
2022/04/29 08:37:43;;;;;;;3.40;3.10;;;23.60;57.30;;;;;;5018602;28;21315;-49
2022/04/29 08:40:12;;;;;;;7.90;4.03;;;25.70;55.90;;;;;;5019748;28;20428;-48
2022/04/29 08:42:40;;;;;;;4.07;3.47;;;27.90;52.30;;;;;;5019705;28;20470;-47
2022/04/29 08:45:13;;;;;;;4.67;3.20;;;29.10;51.20;;;;;;5019660;28;20524;-46
2022/04/29 08:47:45;;;;;;;4.30;3.90;;;30.30;48.30;;;;;;5019642;28;20521;-49
2022/04/29 08:50:15;;;;;;;6.37;3.70;;;28.70;50.20;;;;;;5019646;28;20465;-46
2022/04/29 08:52:44;;;;;;;8.23;3.30;;;25.90;53.00;;;;;;5020174;28;20445;-49
2022/04/29 09:00:45;;;;;;;2.80;2.57;;;28.50;51.40;;;;;;5022654;28;20472;-46
2022/04/29 09:03:14;;;;;;;5.40;2.97;;;29.30;50.40;;;;;;5023198;28;20696;-51
2022/04/29 09:05:43;;;;;;;3.63;3.00;;;29.80;50.40;;;;;;5023166;28;20517;-46
2022/04/29 09:08:15;;;;;;;3.30;3.03;;;27.70;50.80;;;;;;5022595;28;20466;-51
2022/04/29 09:10:56;;;;;;;5.17;3.40;;;25.60;53.80;;;;;;5022566;28;20426;-45
2022/04/29 09:13:30;;;;;;;4.93;3.93;;;25.50;54.10;;;;;;5023050;28;20427;-45
2022/04/29 09:16:01;;;;;;;3.47;2.93;;;24.00;55.90;;;;;;5022684;28;20495;-49
2022/04/29 09:18:34;;;;;;;3.30;3.00;;;23.60;57.30;;;;;;5023033;28;20460;-47
2022/04/29 09:21:13;;;;;;;5.60;2.93;;;25.40;56.50;;;;;;5022640;28;20768;-49
2022/04/29 09:23:42;;;;;;;4.17;2.87;;;27.50;52.80;;;;;;5022711;28;20502;-50
2022/04/29 09:26:27;;;;;;;2.87;2.67;;;27.60;51.80;;;;;;5022404;28;20506;-49
2022/04/29 09:29:11;;;;;;;4.40;3.10;;;26.10;52.60;;;;;;5022353;28;20499;-48
2022/04/29 09:31:55;;;;;;;4.40;3.40;;;24.60;55.50;;;;;;5022145;28;20497;-50
2022/04/29 09:34:53;;;;;;;8.33;3.47;;;23.40;58.90;;;;;;5022257;28;20450;-47
2022/04/29 09:37:24;;;;;;;2.97;2.60;;;23.20;59.40;;;;;;5021882;28;20654;-49
2022/04/29 09:40:04;;;;;;;3.80;3.50;;;22.80;59.00;;;;;;5022560;28;20435;-48
2022/04/29 09:42:41;;;;;;;4.77;3.47;;;22.10;59.90;;;;;;5021878;28;20426;-48
2022/04/29 09:45:24;;;;;;;3.23;3.00;;;21.10;63.30;;;;;;5022215;28;20401;-44
2022/04/29 09:47:58;;;;;;;3.37;3.07;;;21.40;65.40;;;;;;5002133;28;20720;-46
2022/04/29 09:50:48;;;;;;;3.13;2.90;;;22.00;62.90;;;;;;5002338;28;20430;-50
2022/04/29 09:53:18;;;;;;;3.17;2.47;;;22.40;62.20;;;;;;5002199;28;20466;-49
2022/04/29 09:56:06;;;;;;;4.97;4.00;;;22.70;59.90;;;;;;5002900;28;20686;-51
2022/04/29 09:58:33;;;;;;;3.83;3.53;;;21.70;61.20;;;;;;5001998;28;20489;-46
2022/04/29 10:01:04;;;;;;;5.20;3.33;;;20.80;64.80;;;;;;5002542;28;20437;-45
2022/04/29 10:03:34;;;;;;;4.40;3.47;;;20.30;64.10;;;;;;5001975;28;20440;-46
2022/04/29 10:06:02;;;;;;;3.90;3.53;;;20.10;65.10;;;;;;5002025;28;20433;-48
2022/04/29 10:08:31;;;;;;;7.10;3.43;;;19.90;65.90;;;;;;5002058;28;20825;-44
2022/04/29 10:11:00;;;;;;;3.03;2.83;;;19.90;66.20;;;;;;5002484;28;20499;-47
2022/04/29 10:13:29;;;;;;;6.80;3.03;;;20.30;65.10;;;;;;5002006;28;20468;-46
2022/04/29 10:15:57;;;;;;;6.53;3.17;;;20.80;65.30;;;;;;5002805;28;20495;-50
2022/04/29 10:21:17;;;;;;;4.70;3.23;;;20.90;64.30;;;;;;5002467;28;20478;-49
2022/04/29 10:23:51;;;;;;;3.40;2.83;;;20.60;64.60;;;;;;5002117;28;20666;-46
2022/04/29 10:26:19;;;;;;;3.50;2.60;;;20.60;64.70;;;;;;5001601;28;20664;-47
2022/04/29 10:28:48;;;;;;;4.57;2.93;;;20.40;64.20;;;;;;5001463;28;20679;-48
2022/04/29 10:31:22;;;;;;;4.20;2.87;;;19.90;63.40;;;;;;5001551;28;20620;-44
2022/04/29 10:33:50;;;;;;;3.40;2.90;;;19.20;64.70;;;;;;5001485;28;20429;-47
2022/04/29 10:36:22;;;;;;;5.27;3.40;;;18.90;67.50;;;;;;5001726;28;20482;-47
2022/04/29 10:39:00;;;;;;;6.80;3.63;;;19.00;68.10;;;;;;5002180;28;20616;-45
2022/04/29 10:41:27;;;;;;;10.33;3.33;;;19.10;68.80;;;;;;5002275;28;20458;-45
2022/04/29 10:43:55;;;;;;;5.13;2.70;;;19.10;69.40;;;;;;5002133;28;20495;-48
2022/04/29 10:46:39;;;;;;;4.40;2.77;;;19.20;70.20;;;;;;5010054;28;20477;-49
2022/04/29 10:49:27;;;;;;;4.50;3.23;;;19.70;69.30;;;;;;5021195;28;20779;-50
2022/04/29 10:52:00;;;;;;;3.60;2.80;;;20.00;68.40;;;;;;5021151;28;20777;-47
2022/04/29 10:54:34;;;;;;;3.83;3.53;;;20.40;67.70;;;;;;5020547;28;20788;-48
2022/04/29 10:57:12;;;;;;;3.57;2.80;;;20.50;66.10;;;;;;5021171;28;20615;-47
2022/04/29 10:59:59;;;;;;;3.53;2.57;;;20.30;67.70;;;;;;5020848;28;20625;-51
2022/04/29 11:02:32;;;;;;;3.40;3.10;;;19.80;67.50;;;;;;5020565;28;20428;-48
2022/04/29 11:05:01;;;;;;;3.33;2.93;;;19.30;67.30;;;;;;5020890;28;20426;-49
2022/04/29 11:07:49;;;;;;;3.50;2.80;;;18.90;68.10;;;;;;5020400;28;20718;-48
2022/04/29 11:10:22;;;;;;;4.97;3.50;;;19.00;68.60;;;;;;5020716;28;20632;-47
2022/04/29 11:13:04;;;;;;;3.50;2.73;;;19.40;66.90;;;;;;5020189;28;20437;-48
2022/04/29 11:15:46;;;;;;;3.73;2.77;;;19.60;65.70;;;;;;5019872;28;20799;-48
2022/04/29 11:18:19;;;;;;;2.47;2.27;;;19.90;66.50;;;;;;5019466;28;20459;-45
2022/04/29 11:20:48;;;;;;;3.90;2.50;;;19.70;65.50;;;;;;5020224;28;20794;-49
2022/04/29 11:26:12;;;;;;;7.33;2.70;;;19.30;65.80;;;;;;5020620;28;20486;-46
2022/04/29 11:28:39;;;;;;;3.67;2.90;;;19.30;64.30;;;;;;5020342;28;20473;-51
2022/04/29 11:31:09;;;;;;;1.87;1.77;;;19.40;63.80;;;;;;5020241;28;20476;-48
2022/04/29 11:33:37;;;;;;;2.53;2.20;;;19.20;65.50;;;;;;5020362;28;20441;-46
2022/04/29 11:36:06;;;;;;;3.57;2.57;;;19.00;64.50;;;;;;5020646;28;20548;-49
2022/04/29 11:38:40;;;;;;;5.57;2.20;;;19.00;66.30;;;;;;5019942;28;20541;-48
2022/04/29 11:41:17;;;;;;;2.60;2.40;;;19.30;68.00;;;;;;5020233;28;20803;-46
2022/04/29 11:43:46;;;;;;;2.17;1.97;;;19.50;67.90;;;;;;5020657;28;20705;-45
2022/04/29 11:46:15;;;;;;;3.10;2.40;;;19.80;65.80;;;;;;5020698;28;20413;-48
2022/04/29 11:48:54;;;;;;;2.90;2.13;;;19.90;65.20;;;;;;5020556;28;20493;-46
2022/04/29 11:51:21;;;;;;;3.20;2.50;;;20.10;65.20;;;;;;5020277;28;20485;-46
2022/04/29 11:54:04;;;;;;;2.97;2.23;;;20.20;61.40;;;;;;5019908;28;20780;-46
2022/04/29 11:56:36;;;;;;;4.87;2.60;;;19.70;62.70;;;;;;5019835;28;20423;-45
2022/04/29 11:59:08;;;;;;;4.80;2.20;;;19.00;64.50;;;;;;5019948;28;20466;-47
2022/04/29 12:01:37;;;;;;;2.83;2.63;;;18.80;64.20;;;;;;5020125;28;20505;-49
2022/04/29 12:04:05;;;;;;;4.73;2.60;;;18.70;65.10;;;;;;5019789;28;20413;-47
2022/04/29 12:06:33;;;;;;;3.53;2.33;;;18.80;65.00;;;;;;5019946;28;20433;-47
2022/04/29 12:09:01;;;;;;;3.33;2.43;;;18.80;65.40;;;;;;5020288;28;20492;-48
2022/04/29 12:11:30;;;;;;;2.30;2.10;;;18.30;64.90;;;;;;5020153;28;20405;-50
2022/04/29 12:14:30;;;;;;;2.53;2.20;;;17.90;65.10;;;;;;5019994;28;20436;-46
2022/04/29 12:16:57;;;;;;;3.10;2.50;;;17.70;65.50;;;;;;4997756;28;20440;-47
2022/04/29 12:19:26;;;;;;;6.27;2.30;;;17.70;67.90;;;;;;5019462;28;20648;-45
2022/04/29 12:21:58;;;;;;;15.73;2.70;;;17.80;68.80;;;;;;5020287;28;20438;-46
2022/04/29 12:24:26;;;;;;;3.67;2.43;;;17.80;68.30;;;;;;5019661;28;20645;-48
2022/04/29 12:27:32;;;;;;;5.27;2.63;;;18.10;68.30;;;;;;5019717;28;20408;-48
2022/04/29 12:35:38;;;;;;;1.80;1.70;;;18.80;66.30;;;;;;5022935;28;20407;-50
2022/04/29 12:38:07;;;;;;;2.60;2.40;;;19.50;64.00;;;;;;5023392;28;20458;-48
2022/04/29 12:40:43;;;;;;;2.90;2.43;;;19.90;64.20;;;;;;5023203;28;20447;-45
2022/04/29 12:43:14;;;;;;;2.50;1.77;;;20.00;64.30;;;;;;5023143;28;20495;-46
2022/04/29 12:45:41;;;;;;;4.07;2.10;;;19.60;62.50;;;;;;5023404;28;20462;-52
2022/04/29 12:48:11;;;;;;;1.70;1.47;;;19.30;63.60;;;;;;5023754;28;20441;-47
2022/04/29 12:50:41;;;;;;;1.70;1.60;;;19.20;64.30;;;;;;5020583;28;20446;-46
2022/04/29 12:53:12;;;;;;;3.73;2.07;;;19.30;64.60;;;;;;5015690;28;20438;-48
2022/04/29 12:55:42;;;;;;;3.90;2.13;;;19.80;65.00;;;;;;5016781;28;20446;-49
2022/04/29 12:58:20;;;;;;;2.30;2.10;;;20.00;65.00;;;;;;5020352;28;20444;-48
2022/04/29 13:00:56;;;;;;;3.13;2.23;;;20.00;66.30;;;;;;5012907;28;20406;-47
2022/04/29 13:03:29;;;;;;;1.70;1.60;;;19.50;62.10;;;;;;5014469;28;20433;-45
2022/04/29 13:05:59;;;;;;;2.10;2.00;;;19.00;63.80;;;;;;5015670;28;20402;-49
2022/04/29 13:08:26;;;;;;;4.60;3.23;;;19.00;64.20;;;;;;5009920;28;20514;-46
2022/04/29 13:10:59;;;;;;;2.40;1.87;;;19.10;63.50;;;;;;5003040;28;20406;-46
2022/04/29 13:13:28;;;;;;;3.80;2.20;;;19.00;62.50;;;;;;5026710;28;20414;-48
2022/04/29 13:15:56;;;;;;;1.90;1.80;;;19.00;64.10;;;;;;5034245;28;20421;-47
2022/04/29 13:18:24;;;;;;;2.27;1.80;;;18.80;64.30;;;;;;5008018;28;20783;-47
2022/04/29 13:20:52;;;;;;;1.63;1.53;;;18.70;64.50;;;;;;5006046;28;20611;-51
2022/04/29 13:23:19;;;;;;;2.30;2.10;;;18.80;64.20;;;;;;5014340;28;20640;-48
2022/04/29 13:25:49;;;;;;;3.00;1.80;;;19.00;63.40;;;;;;5023183;28;20754;-50
2022/04/29 13:28:17;;;;;;;1.67;1.50;;;18.90;61.50;;;;;;5022550;28;20439;-45